Time;durP1;ratioP1;P1;durP2;ratioP2;P2;SDS_P1;SDS_P2;PMS_P1;PMS_P2;Temp;Humidity;BMP_temperature;BMP_pressure;BME280_temperature;BME280_humidity;BME280_pressure;Samples;Min_cycle;Max_cycle;Signal;HPM_P1;HPM_P2
2021/06/13 00:00:28;;;;;;;4.43;3.69;;;;;;;;;;389514;135;859182;-58
2021/06/13 00:01:29;;;;;;;7.04;3.94;;;;;;;;;;393548;135;858341;-57
2021/06/13 00:02:31;;;;;;;6.31;4.03;;;;;;;;;;395903;135;859327;-58
2021/06/13 00:03:33;;;;;;;7.69;3.61;;;;;;;;;;392734;135;857376;-58
2021/06/13 00:04:34;;;;;;;5.62;4.21;;;;;;;;;;386334;138;857447;-58
2021/06/13 00:05:36;;;;;;;5.16;4.06;;;;;;;;;;396658;135;857383;-58
2021/06/13 00:06:39;;;;;;;7.93;3.95;;;;;;;;;;394987;135;857258;-58
2021/06/13 00:07:41;;;;;;;5.58;3.50;;;;;;;;;;392630;135;857175;-58
2021/06/13 00:08:42;;;;;;;4.68;3.85;;;;;;;;;;394970;135;864749;-62
2021/06/13 00:09:44;;;;;;;7.04;3.92;;;;;;;;;;393265;135;864980;-59
2021/06/13 00:10:47;;;;;;;4.40;3.66;;;;;;;;;;395463;135;857751;-58
2021/06/13 00:11:49;;;;;;;8.30;3.88;;;;;;;;;;391413;135;857256;-58
2021/06/13 00:12:50;;;;;;;5.12;3.81;;;;;;;;;;393137;136;857386;-58
2021/06/13 00:13:52;;;;;;;4.77;3.87;;;;;;;;;;396936;135;858413;-58
2021/06/13 00:14:53;;;;;;;4.74;3.68;;;;;;;;;;391632;135;860410;-59
2021/06/13 00:15:55;;;;;;;5.12;3.73;;;;;;;;;;396090;135;859776;-59
2021/06/13 00:16:57;;;;;;;6.95;4.17;;;;;;;;;;395894;135;859538;-59
2021/06/13 00:17:59;;;;;;;4.69;3.52;;;;;;;;;;396091;135;860073;-58
2021/06/13 00:19:00;;;;;;;5.34;4.26;;;;;;;;;;397423;135;857165;-58
2021/06/13 00:20:04;;;;;;;6.96;4.31;;;;;;;;;;392931;135;866679;-59
2021/06/13 00:21:06;;;;;;;5.21;3.83;;;;;;;;;;393067;137;864827;-58
2021/06/13 00:22:07;;;;;;;6.85;4.31;;;;;;;;;;393884;135;859880;-60
2021/06/13 00:23:09;;;;;;;7.91;4.37;;;;;;;;;;393149;135;858968;-59
2021/06/13 00:24:11;;;;;;;4.91;4.41;;;;;;;;;;395726;135;857389;-59
2021/06/13 00:25:12;;;;;;;5.00;3.91;;;;;;;;;;393678;135;859070;-58
2021/06/13 00:26:15;;;;;;;5.76;3.61;;;;;;;;;;391256;134;857274;-59
2021/06/13 00:27:16;;;;;;;7.46;3.96;;;;;;;;;;390129;134;857226;-58
2021/06/13 00:28:18;;;;;;;5.38;4.22;;;;;;;;;;392740;135;866625;-58
2021/06/13 00:29:19;;;;;;;7.63;4.44;;;;;;;;;;389298;138;859731;-58
2021/06/13 00:30:22;;;;;;;6.29;3.81;;;;;;;;;;396699;135;858985;-58
2021/06/13 00:31:24;;;;;;;8.01;4.37;;;;;;;;;;391291;135;858216;-59
2021/06/13 00:32:25;;;;;;;6.69;4.69;;;;;;;;;;387799;138;860205;-58
2021/06/13 00:33:27;;;;;;;8.05;5.11;;;;;;;;;;394502;135;857316;-59
2021/06/13 00:34:29;;;;;;;8.64;4.81;;;;;;;;;;396346;135;857254;-58
2021/06/13 00:35:30;;;;;;;9.83;5.06;;;;;;;;;;394818;135;857376;-58
2021/06/13 00:36:33;;;;;;;11.94;5.19;;;;;;;;;;393719;135;857424;-58
2021/06/13 00:37:35;;;;;;;12.56;5.99;;;;;;;;;;397325;135;858558;-59
2021/06/13 00:38:37;;;;;;;12.69;5.06;;;;;;;;;;394662;135;865001;-59
2021/06/13 00:39:38;;;;;;;8.66;4.91;;;;;;;;;;390197;134;857279;-59
2021/06/13 00:40:42;;;;;;;8.25;4.59;;;;;;;;;;396127;135;858930;-59
2021/06/13 00:41:44;;;;;;;5.84;4.59;;;;;;;;;;391703;135;859015;-59
2021/06/13 00:42:46;;;;;;;11.39;4.45;;;;;;;;;;393293;135;857300;-59
2021/06/13 00:43:47;;;;;;;8.08;5.07;;;;;;;;;;394830;135;857392;-59
2021/06/13 00:44:49;;;;;;;14.92;5.86;;;;;;;;;;394317;134;857335;-59
2021/06/13 00:45:51;;;;;;;6.99;4.84;;;;;;;;;;391045;135;859496;-59
2021/06/13 00:46:52;;;;;;;6.97;4.60;;;;;;;;;;389486;135;866108;-59
2021/06/13 00:47:54;;;;;;;5.50;4.51;;;;;;;;;;396185;135;857429;-58
2021/06/13 00:48:56;;;;;;;4.95;4.44;;;;;;;;;;393642;135;858794;-58
2021/06/13 00:49:57;;;;;;;8.11;4.79;;;;;;;;;;395930;135;859379;-59
2021/06/13 00:50:59;;;;;;;7.15;4.67;;;;;;;;;;394512;135;857305;-57
2021/06/13 00:52:01;;;;;;;6.79;4.33;;;;;;;;;;391242;134;857827;-59
2021/06/13 00:53:03;;;;;;;12.44;4.81;;;;;;;;;;394289;134;864806;-58
2021/06/13 00:54:05;;;;;;;6.75;4.60;;;;;;;;;;394183;134;857285;-58
2021/06/13 00:55:07;;;;;;;10.31;5.06;;;;;;;;;;385762;138;857318;-59
2021/06/13 00:56:09;;;;;;;6.63;4.55;;;;;;;;;;381812;136;857342;-59
2021/06/13 00:57:11;;;;;;;7.11;4.71;;;;;;;;;;377495;142;867405;-58
2021/06/13 00:58:12;;;;;;;7.61;4.57;;;;;;;;;;392290;135;860380;-57
2021/06/13 00:59:14;;;;;;;6.33;4.49;;;;;;;;;;395544;135;857319;-56
2021/06/13 01:00:17;;;;;;;6.92;4.65;;;;;;;;;;391520;137;857316;-57
2021/06/13 01:01:18;;;;;;;7.49;4.35;;;;;;;;;;387302;135;857397;-58
2021/06/13 01:02:20;;;;;;;9.61;4.67;;;;;;;;;;397422;135;858830;-58
2021/06/13 01:03:22;;;;;;;7.67;4.68;;;;;;;;;;395463;135;857157;-58
2021/06/13 01:04:23;;;;;;;10.56;5.02;;;;;;;;;;394295;135;857243;-59
2021/06/13 01:05:25;;;;;;;10.98;5.16;;;;;;;;;;394857;135;857379;-59
2021/06/13 01:06:29;;;;;;;9.73;4.83;;;;;;;;;;391034;135;857094;-59
2021/06/13 01:07:32;;;;;;;14.09;4.96;;;;;;;;;;393918;135;857285;-58
2021/06/13 01:08:49;;;;;;;7.46;4.44;;;;;;;;;;391107;135;857265;-59
2021/06/13 01:09:51;;;;;;;14.27;5.14;;;;;;;;;;392881;134;859042;-58
2021/06/13 01:11:12;;;;;;;11.03;4.87;;;;;;;;;;397202;135;857430;-58
2021/06/13 01:12:28;;;;;;;7.14;4.13;;;;;;;;;;395356;135;858726;-58
2021/06/13 01:13:48;;;;;;;10.49;4.44;;;;;;;;;;395921;135;860013;-57
2021/06/13 01:14:54;;;;;;;7.91;4.28;;;;;;;;;;394000;135;857184;-58
2021/06/13 01:16:00;;;;;;;7.91;4.61;;;;;;;;;;394929;135;857237;-60
2021/06/13 01:17:07;;;;;;;8.72;4.41;;;;;;;;;;394251;135;857286;-58
2021/06/13 01:18:14;;;;;;;9.43;4.13;;;;;;;;;;390742;135;858100;-59
2021/06/13 01:19:17;;;;;;;12.82;4.67;;;;;;;;;;389123;135;858088;-57
2021/06/13 01:20:24;;;;;;;5.83;4.82;;;;;;;;;;393806;135;858271;-58
2021/06/13 01:21:31;;;;;;;8.22;4.94;;;;;;;;;;384641;139;859176;-58
2021/06/13 01:22:51;;;;;;;11.92;5.13;;;;;;;;;;393460;135;857469;-58
2021/06/13 01:24:04;;;;;;;11.56;4.76;;;;;;;;;;392595;134;856660;-58
2021/06/13 01:25:14;;;;;;;10.94;4.96;;;;;;;;;;392229;135;857268;-59
2021/06/13 01:26:27;;;;;;;5.69;4.36;;;;;;;;;;393103;136;858938;-59
2021/06/13 01:27:34;;;;;;;6.15;4.77;;;;;;;;;;392499;135;858038;-59
2021/06/13 01:28:46;;;;;;;9.29;4.62;;;;;;;;;;379254;141;858486;-57
2021/06/13 01:29:48;;;;;;;8.38;5.19;;;;;;;;;;388985;135;857269;-58
2021/06/13 01:30:51;;;;;;;7.01;4.85;;;;;;;;;;390429;135;858603;-58
2021/06/13 01:45:42;;;;;;;5.68;4.44;;;;;;;15.58;64.74;98886.41;379893;139;879029;-58
2021/06/13 01:46:45;;;;;;;5.69;4.46;;;;;;;15.51;64.87;98889.38;368885;142;857249;-59
2021/06/13 01:47:47;;;;;;;9.57;4.45;;;;;;;15.53;64.89;98887.55;371885;144;860391;-57
2021/06/13 01:48:49;;;;;;;6.59;4.43;;;;;;;15.52;64.64;98886.69;372572;144;860407;-58
2021/06/13 01:49:50;;;;;;;5.77;4.79;;;;;;;15.53;64.93;98890.98;373758;141;857511;-58
2021/06/13 01:50:53;;;;;;;6.27;4.39;;;;;;;15.56;65.09;98890.02;373731;144;859103;-58
2021/06/13 01:51:55;;;;;;;6.74;3.96;;;;;;;15.56;65.09;98890.02;368280;141;857269;-58
2021/06/13 01:52:58;;;;;;;6.41;4.35;;;;;;;15.56;65.09;98890.02;372398;142;857324;-58
2021/06/13 01:54:00;;;;;;;7.44;4.66;;;;;;;15.61;64.33;98888.05;371617;144;864821;-59
2021/06/13 01:55:02;;;;;;;5.40;4.11;;;;;;;15.59;64.37;98882.05;372644;142;859887;-59
2021/06/13 01:56:04;;;;;;;7.91;4.83;;;;;;;15.57;64.45;98887.33;369976;141;859069;-59
2021/06/13 01:57:07;;;;;;;11.93;5.44;;;;;;;15.55;64.59;98888.33;363325;145;857445;-59
2021/06/13 01:58:11;;;;;;;6.86;4.30;;;;;;;15.56;64.80;98890.02;363256;145;864958;-58
2021/06/13 01:59:14;;;;;;;8.66;5.06;;;;;;;15.56;64.80;98890.02;364448;147;858536;-58
2021/06/13 02:00:18;;;;;;;11.08;5.55;;;;;;;15.59;65.72;98882.05;365524;145;865456;-58
2021/06/13 02:01:21;;;;;;;14.03;5.57;;;;;;;15.63;65.77;98881.83;370386;144;857304;-58
2021/06/13 02:02:24;;;;;;;9.68;5.24;;;;;;;15.68;65.39;98873.80;366614;147;857326;-59
2021/06/13 02:03:25;;;;;;;13.93;5.39;;;;;;;15.73;65.34;98876.18;373031;141;858242;-58
2021/06/13 02:04:27;;;;;;;10.41;5.29;;;;;;;15.74;65.47;98880.48;374109;141;858008;-58
2021/06/13 02:05:29;;;;;;;5.69;4.60;;;;;;;15.76;65.88;98876.03;371322;144;865993;-58
2021/06/13 02:06:34;;;;;;;7.41;5.01;;;;;;;15.77;66.80;98878.59;366662;145;865863;-58
2021/06/13 02:07:36;;;;;;;6.25;4.96;;;;;;;15.77;66.83;98875.98;372926;143;857387;-58
2021/06/13 02:08:38;;;;;;;6.03;5.00;;;;;;;15.76;66.94;98870.81;370582;141;859055;-59
2021/06/13 02:09:40;;;;;;;5.83;4.32;;;;;;;15.73;67.03;98871.82;369538;143;860045;-58
2021/06/13 02:10:42;;;;;;;7.77;4.65;;;;;;;15.73;67.03;98871.82;371133;143;860010;-58
2021/06/13 02:11:44;;;;;;;5.25;4.21;;;;;;;15.80;66.77;98871.53;370233;142;858924;-59
2021/06/13 02:12:46;;;;;;;5.28;4.64;;;;;;;15.83;66.41;98871.39;369306;143;864796;-58
2021/06/13 02:13:48;;;;;;;5.99;4.45;;;;;;;15.85;66.10;98875.60;372404;143;864929;-58
2021/06/13 02:14:49;;;;;;;4.24;3.84;;;;;;;;;;372602;143;858941;-59
2021/06/13 02:15:53;;;;;;;5.67;4.58;;;;;;;;;;372587;142;859954;-58
2021/06/13 02:16:55;;;;;;;7.10;4.44;;;;;;;;;;373113;142;859832;-59
2021/06/13 02:17:56;;;;;;;8.66;5.01;;;;;;;;;;370064;143;864844;-58
2021/06/13 02:18:58;;;;;;;8.14;4.80;;;;;;;;;;371223;143;858422;-58
2021/06/13 02:20:00;;;;;;;5.50;4.40;;;;;;;;;;373760;142;857328;-58
2021/06/13 02:21:03;;;;;;;5.70;4.48;;;;;;;;;;368957;143;865251;-58
2021/06/13 02:22:05;;;;;;;7.12;4.36;;;;;;;;;;368570;141;857377;-58
2021/06/13 02:23:06;;;;;;;6.74;4.11;;;;;;;;;;375250;140;857377;-58
2021/06/13 02:24:09;;;;;;;6.71;4.74;;;;;;;;;;373839;143;857274;-58
2021/06/13 02:25:11;;;;;;;11.44;4.63;;;;;;;;;;372984;141;866613;-58
2021/06/13 02:26:13;;;;;;;5.50;4.45;;;;;;;;;;375162;143;858325;-58
2021/06/13 02:27:18;;;;;;;8.15;4.58;;;;;;;;;;375676;143;865646;-58
2021/06/13 02:28:19;;;;;;;5.91;4.17;;;;;;;;;;371866;140;857325;-58
2021/06/13 02:46:09;;;;;;;5.75;4.68;;;;;;;16.50;67.08;98843.80;369967;142;882018;-56
2021/06/13 02:47:12;;;;;;;9.95;4.61;;;;;;;16.47;67.06;98846.56;362735;146;858443;-56
2021/06/13 02:48:15;;;;;;;5.78;4.75;;;;;;;16.53;66.76;98845.43;360462;147;857385;-56
2021/06/13 02:49:17;;;;;;;6.85;4.89;;;;;;;16.61;66.50;98850.25;363452;147;859306;-56
2021/06/13 02:50:22;;;;;;;5.94;4.69;;;;;;;16.63;66.32;98848.41;364943;147;857413;-56
2021/06/13 02:51:27;;;;;;;7.44;5.12;;;;;;;16.67;66.32;98849.94;365132;147;864855;-56
2021/06/13 02:52:41;;;;;;;10.09;5.12;;;;;;;16.70;66.33;98844.56;364239;146;865814;-56
2021/06/13 02:53:47;;;;;;;7.83;5.13;;;;;;;16.75;66.74;98847.78;364104;147;857263;-57
2021/06/13 02:54:48;;;;;;;7.92;4.94;;;;;;;16.82;66.82;98847.47;365803;147;857917;-56
2021/06/13 02:56:16;;;;;;;7.24;5.26;;;;;;;16.88;66.83;98847.15;362581;147;857322;-56
2021/06/13 02:57:24;;;;;;;8.23;4.97;;;;;;;16.93;66.77;98846.00;365834;147;865619;-56
2021/06/13 02:58:51;;;;;;;10.52;4.91;;;;;;;17.01;66.58;98836.94;364493;146;857745;-55
2021/06/13 03:00:00;;;;;;;8.36;5.14;;;;;;;17.05;66.46;98844.56;363349;147;857207;-56
2021/06/13 03:01:02;;;;;;;7.53;5.00;;;;;;;17.11;66.33;98842.55;364403;147;857224;-56
2021/06/13 03:02:08;;;;;;;6.57;5.14;;;;;;;17.15;66.26;98844.07;364517;147;857690;-54
2021/06/13 03:03:10;;;;;;;8.03;5.12;;;;;;;17.19;66.20;98846.43;359556;146;857152;-56
2021/06/13 03:04:12;;;;;;;7.41;4.93;;;;;;;17.22;66.09;98842.82;360797;147;861361;-56
2021/06/13 03:05:13;;;;;;;6.80;4.69;;;;;;;17.20;65.49;98848.12;359530;148;864838;-57
2021/06/13 03:06:19;;;;;;;5.81;4.62;;;;;;;17.13;65.68;98848.54;362588;148;864750;-57
2021/06/13 03:07:21;;;;;;;6.29;4.94;;;;;;;17.07;66.27;98849.69;356694;148;858705;-56
2021/06/13 03:08:23;;;;;;;8.40;5.14;;;;;;;17.08;66.59;98848.77;356093;148;857341;-56
2021/06/13 03:09:27;;;;;;;5.73;4.41;;;;;;;17.11;66.71;98853.00;360039;148;864979;-57
2021/06/13 03:10:30;;;;;;;5.59;4.87;;;;;;;17.11;66.71;98853.00;360211;148;857333;-56
2021/06/13 03:11:32;;;;;;;7.94;5.28;;;;;;;17.16;66.79;98854.44;359825;147;857508;-57
2021/06/13 03:12:34;;;;;;;7.07;5.01;;;;;;;;;;360604;148;864964;-56
2021/06/13 03:13:36;;;;;;;7.79;4.43;;;;;;;;;;358968;148;857215;-56
2021/06/13 03:14:40;;;;;;;6.56;4.86;;;;;;;;;;361227;147;857210;-57
2021/06/13 03:15:41;;;;;;;9.93;4.97;;;;;;;;;;350037;152;857120;-58
2021/06/13 03:16:44;;;;;;;7.39;5.18;;;;;;;;;;358382;148;860107;-59
2021/06/13 03:17:46;;;;;;;7.46;5.33;;;;;;;;;;360478;147;859711;-57
2021/06/13 03:18:48;;;;;;;5.62;5.03;;;;;;;;;;351436;152;857301;-58
2021/06/13 03:19:49;;;;;;;6.86;4.93;;;;;;;;;;349624;148;857790;-58
2021/06/13 03:20:51;;;;;;;4.71;4.23;;;;;;;;;;358909;148;857327;-56
2021/06/13 03:21:53;;;;;;;7.16;4.87;;;;;;;;;;359616;148;857331;-57
2021/06/13 03:22:55;;;;;;;7.99;4.59;;;;;;;;;;359926;147;857216;-57
2021/06/13 03:23:57;;;;;;;8.09;5.01;;;;;;;;;;359942;148;858925;-57
2021/06/13 03:24:58;;;;;;;7.29;4.99;;;;;;;;;;360272;148;858922;-57
2021/06/13 03:26:03;;;;;;;6.66;5.22;;;;;;;;;;360454;147;858387;-57
2021/06/13 03:27:07;;;;;;;6.20;4.88;;;;;;;;;;360976;147;857252;-57
2021/06/13 03:28:08;;;;;;;8.01;5.05;;;;;;;;;;360177;148;857215;-58
2021/06/13 03:29:10;;;;;;;7.63;4.98;;;;;;;;;;358125;148;857243;-56
2021/06/13 03:30:13;;;;;;;8.68;4.81;;;;;;;;;;359541;147;865790;-57
2021/06/13 03:31:15;;;;;;;5.64;4.94;;;;;;;;;;359199;147;858112;-56
2021/06/13 03:32:16;;;;;;;7.76;5.24;;;;;;;;;;359756;148;858249;-58
2021/06/13 03:33:18;;;;;;;6.66;5.21;;;;;;;;;;359764;147;857322;-59
2021/06/13 03:34:19;;;;;;;7.49;4.86;;;;;;;;;;358196;148;857232;-57
2021/06/13 03:35:21;;;;;;;7.12;5.04;;;;;;;;;;362351;148;857129;-57
2021/06/13 03:36:24;;;;;;;8.59;5.27;;;;;;;;;;361548;147;858036;-58
2021/06/13 03:37:26;;;;;;;8.98;5.41;;;;;;;;;;358152;148;857353;-57
2021/06/13 03:38:28;;;;;;;10.21;4.78;;;;;;;;;;362211;148;858996;-58
2021/06/13 03:39:29;;;;;;;7.32;4.76;;;;;;;;;;358500;148;858191;-55
2021/06/13 03:40:32;;;;;;;10.24;5.25;;;;;;;;;;360644;148;858749;-57
2021/06/13 03:41:33;;;;;;;6.26;4.49;;;;;;;;;;360357;148;858679;-57
2021/06/13 03:42:35;;;;;;;7.98;5.15;;;;;;;;;;359021;148;857139;-57
2021/06/13 03:43:36;;;;;;;11.28;4.71;;;;;;;;;;360449;148;864786;-59
2021/06/13 03:44:38;;;;;;;6.97;4.86;;;;;;;;;;361744;148;857092;-57
2021/06/13 03:45:40;;;;;;;7.06;4.96;;;;;;;;;;358525;148;864622;-58
2021/06/13 03:46:42;;;;;;;5.65;4.60;;;;;;;;;;350650;151;864697;-58
2021/06/13 03:47:44;;;;;;;6.90;4.89;;;;;;;;;;357473;148;857351;-59
2021/06/13 03:48:47;;;;;;;4.93;4.32;;;;;;;;;;350728;152;865294;-57
2021/06/13 03:49:48;;;;;;;7.92;4.83;;;;;;;;;;351082;150;864827;-58
2021/06/13 03:50:52;;;;;;;5.31;4.38;;;;;;;;;;359138;148;858952;-56
2021/06/13 03:51:54;;;;;;;5.31;4.66;;;;;;;;;;359906;147;857305;-57
2021/06/13 03:52:55;;;;;;;6.07;4.86;;;;;;;;;;359929;147;864807;-57
2021/06/13 03:53:57;;;;;;;6.39;5.10;;;;;;;;;;358578;148;857646;-56
2021/06/13 03:54:59;;;;;;;9.66;4.86;;;;;;;;;;360344;148;857038;-58
2021/06/13 03:56:01;;;;;;;7.61;4.46;;;;;;;;;;359389;147;859339;-57
2021/06/13 03:57:04;;;;;;;7.92;4.43;;;;;;;;;;359070;147;860223;-56
2021/06/13 03:58:06;;;;;;;7.88;4.72;;;;;;;;;;360290;147;857755;-56
2021/06/13 03:59:08;;;;;;;8.47;4.63;;;;;;;;;;357818;148;865616;-55
2021/06/13 04:00:12;;;;;;;7.54;4.49;;;;;;;;;;360449;147;857926;-56
2021/06/13 04:01:15;;;;;;;6.91;4.81;;;;;;;;;;359346;148;856494;-57
2021/06/13 04:02:16;;;;;;;6.99;4.76;;;;;;;;;;358891;148;856492;-57
2021/06/13 04:03:19;;;;;;;9.04;4.96;;;;;;;;;;358912;146;856783;-56
2021/06/13 04:04:20;;;;;;;8.82;4.64;;;;;;;;;;358786;148;856153;-55
2021/06/13 04:05:22;;;;;;;7.25;5.06;;;;;;;;;;360719;148;857329;-56
2021/06/13 04:06:25;;;;;;;7.44;4.58;;;;;;;;;;360042;148;857269;-56
2021/06/13 04:07:27;;;;;;;5.82;4.44;;;;;;;;;;360068;148;857428;-55
2021/06/13 04:08:28;;;;;;;7.14;4.87;;;;;;;;;;357423;148;857383;-55
2021/06/13 04:09:30;;;;;;;8.65;4.81;;;;;;;;;;360720;148;859142;-56
2021/06/13 04:10:33;;;;;;;5.41;4.31;;;;;;;;;;359437;148;858228;-54
2021/06/13 04:11:34;;;;;;;8.71;4.50;;;;;;;;;;359952;148;857286;-54
2021/06/13 04:12:36;;;;;;;6.91;4.46;;;;;;;;;;352443;151;858798;-55
2021/06/13 04:13:38;;;;;;;5.99;4.41;;;;;;;;;;348267;151;857732;-58
2021/06/13 04:14:39;;;;;;;7.64;4.88;;;;;;;;;;358579;147;857074;-61
2021/06/13 04:15:41;;;;;;;7.61;4.61;;;;;;;;;;356661;147;857587;-58
2021/06/13 04:16:46;;;;;;;5.66;4.27;;;;;;;;;;362532;148;857114;-62
2021/06/13 04:17:48;;;;;;;7.31;4.67;;;;;;;;;;361089;147;857295;-58
2021/06/13 04:18:50;;;;;;;4.61;3.91;;;;;;;;;;362047;148;864878;-60
2021/06/13 04:19:51;;;;;;;6.27;3.88;;;;;;;;;;360572;147;857982;-60
2021/06/13 04:20:53;;;;;;;8.49;4.19;;;;;;;;;;361153;148;857247;-63
2021/06/13 04:21:55;;;;;;;7.26;4.08;;;;;;;;;;360848;148;866539;-61
2021/06/13 04:22:56;;;;;;;5.74;4.64;;;;;;;;;;361605;148;866406;-63
2021/06/13 04:23:59;;;;;;;6.21;4.46;;;;;;;;;;361362;148;857226;-60
2021/06/13 04:25:01;;;;;;;8.45;4.62;;;;;;;;;;362853;148;858763;-60
2021/06/13 04:26:02;;;;;;;8.13;5.02;;;;;;;;;;361780;147;857195;-60
2021/06/13 04:27:04;;;;;;;6.51;4.76;;;;;;;;;;357578;148;857265;-59
2021/06/13 04:28:06;;;;;;;8.20;4.72;;;;;;;;;;359000;148;858951;-60
2021/06/13 04:29:08;;;;;;;8.13;4.56;;;;;;;;;;360391;148;865816;-61
2021/06/13 04:30:12;;;;;;;8.79;4.26;;;;;;;;;;361189;148;857144;-60
2021/06/13 04:31:14;;;;;;;7.32;4.98;;;;;;;;;;358791;148;866703;-59
2021/06/13 04:32:16;;;;;;;7.21;4.15;;;;;;;;;;357922;148;859379;-59
2021/06/13 04:33:18;;;;;;;6.58;3.57;;;;;;;;;;360825;148;858774;-60
2021/06/13 04:34:19;;;;;;;6.24;4.66;;;;;;;;;;361168;147;860329;-60
2021/06/13 04:35:21;;;;;;;7.26;4.30;;;;;;;;;;360397;148;858990;-60
2021/06/13 04:36:24;;;;;;;6.69;4.23;;;;;;;;;;360282;148;858016;-61
2021/06/13 04:37:26;;;;;;;6.33;4.41;;;;;;;;;;357988;147;858028;-59
2021/06/13 04:38:27;;;;;;;6.54;4.26;;;;;;;;;;354408;151;860288;-61
2021/06/13 04:39:29;;;;;;;7.07;4.36;;;;;;;;;;355521;148;857341;-60
2021/06/13 04:40:31;;;;;;;7.15;4.29;;;;;;;;;;358444;147;864956;-61
2021/06/13 04:41:34;;;;;;;5.76;4.23;;;;;;;;;;357738;148;865270;-60
2021/06/13 04:42:36;;;;;;;6.70;4.56;;;;;;;;;;359353;147;857363;-59
2021/06/13 04:43:38;;;;;;;7.16;4.39;;;;;;;;;;360461;147;859110;-61
2021/06/13 04:44:39;;;;;;;8.66;4.29;;;;;;;;;;358775;148;858269;-60
2021/06/13 04:45:41;;;;;;;7.74;4.33;;;;;;;;;;353428;150;864839;-60
2021/06/13 04:46:43;;;;;;;7.08;4.44;;;;;;;;;;357455;148;857708;-61
2021/06/13 04:47:44;;;;;;;5.54;4.44;;;;;;;;;;358532;148;857233;-60
2021/06/13 04:48:46;;;;;;;8.64;4.39;;;;;;;;;;352981;150;857211;-61
2021/06/13 04:49:48;;;;;;;4.48;4.07;;;;;;;;;;358180;148;858797;-61
2021/06/13 04:50:50;;;;;;;6.39;4.07;;;;;;;;;;357758;148;859035;-62
2021/06/13 04:51:53;;;;;;;7.85;4.49;;;;;;;;;;360010;147;857390;-62
2021/06/13 04:52:55;;;;;;;7.19;4.44;;;;;;;;;;357698;148;857497;-63
2021/06/13 04:53:59;;;;;;;7.06;4.40;;;;;;;;;;358776;148;857453;-61
2021/06/13 04:55:19;;;;;;;4.45;3.92;;;;;;;;;;361276;147;857602;-60
2021/06/13 04:56:34;;;;;;;9.03;4.27;;;;;;;-147.14;100.00;151557.39;360728;148;857409;-59
2021/06/13 04:57:40;;;;;;;8.30;4.46;;;;;;;;;;359159;147;859065;-63
2021/06/13 04:58:42;;;;;;;4.11;3.34;;;;;;;;;;359213;148;859943;-61
2021/06/13 04:59:44;;;;;;;5.36;3.53;;;;;;;;;;361563;147;858900;-62
2021/06/13 05:00:45;;;;;;;6.25;3.58;;;;;;;;;;359003;147;857394;-60
2021/06/13 05:01:47;;;;;;;5.11;3.70;;;;;;;;;;359518;147;864720;-61
2021/06/13 05:02:48;;;;;;;7.31;4.04;;;;;;;;;;357591;148;857195;-60
2021/06/13 05:03:50;;;;;;;5.02;3.53;;;;;;;;;;359357;146;857219;-61
2021/06/13 05:04:55;;;;;;;4.58;3.74;;;;;;;;;;360355;148;859023;-61
2021/06/13 05:05:57;;;;;;;6.11;3.92;;;;;;;;;;357773;147;867064;-61
2021/06/13 05:07:03;;;;;;;5.17;3.48;;;;;;;;;;357243;148;864696;-61
2021/06/13 05:08:03;;;;;;;4.84;4.17;;;;;;;;;;358472;148;864688;-60
2021/06/13 05:09:05;;;;;;;4.83;3.61;;;;;;;;;;359336;148;857379;-60
2021/06/13 05:10:08;;;;;;;6.41;4.11;;;;;;;;;;359326;148;858804;-62
2021/06/13 05:11:10;;;;;;;7.69;3.93;;;;;;;;;;358409;148;857195;-61
2021/06/13 05:12:11;;;;;;;4.87;3.60;;;;;;;;;;359079;147;857467;-62
2021/06/13 05:13:14;;;;;;;6.54;3.91;;;;;;;;;;358510;148;866592;-60
2021/06/13 05:14:16;;;;;;;4.84;3.72;;;;;;;;;;359924;147;864811;-60
2021/06/13 05:15:18;;;;;;;9.11;3.89;;;;;;;;;;358046;148;857676;-62
2021/06/13 05:16:20;;;;;;;4.32;3.63;;;;;;;;;;360541;147;857151;-60
2021/06/13 05:17:21;;;;;;;4.51;3.19;;;;;;;;;;359178;147;857263;-60
2021/06/13 05:18:23;;;;;;;5.06;3.74;;;;;;;;;;358426;148;859392;-61
2021/06/13 05:19:25;;;;;;;4.97;3.70;;;;;;;;;;359950;148;865225;-60
2021/06/13 05:20:27;;;;;;;3.78;3.21;;;;;;;;;;360108;148;857403;-62
2021/06/13 05:21:28;;;;;;;5.31;3.54;;;;;;;;;;358189;147;857351;-59
2021/06/13 05:22:30;;;;;;;4.64;3.42;;;;;;;;;;360308;147;857363;-59
2021/06/13 05:23:31;;;;;;;6.11;3.34;;;;;;;;;;359930;147;857215;-59
2021/06/13 05:24:33;;;;;;;5.21;3.70;;;;;;;;;;358350;146;857355;-59
2021/06/13 05:25:36;;;;;;;4.62;3.49;;;;;;;;;;356749;148;857335;-59
2021/06/13 05:26:39;;;;;;;5.88;3.52;;;;;;;;;;360850;147;857202;-59
2021/06/13 05:27:41;;;;;;;4.51;4.05;;;;;;;;;;359549;148;859495;-59
2021/06/13 05:28:42;;;;;;;5.36;3.61;;;;;;;;;;359087;148;859951;-58
2021/06/13 05:29:44;;;;;;;5.51;3.06;;;;;;;;;;359714;147;857336;-60
2021/06/13 05:30:47;;;;;;;8.72;3.83;;;;;;;;;;356082;148;864926;-59
2021/06/13 05:31:49;;;;;;;5.22;3.26;;;;;;;;;;358695;147;858132;-60
2021/06/13 05:32:50;;;;;;;5.40;2.64;;;;;;;;;;360548;147;857901;-60
2021/06/13 05:33:53;;;;;;;3.02;2.56;;;;;;;;;;357569;148;857308;-59
2021/06/13 05:34:54;;;;;;;3.60;3.19;;;;;;;;;;358971;147;864841;-59
2021/06/13 05:35:56;;;;;;;5.74;3.38;;;;;;;;;;358715;148;857294;-60
2021/06/13 05:36:59;;;;;;;5.02;3.26;;;;;;;;;;358289;148;857159;-61
2021/06/13 05:38:01;;;;;;;5.53;2.66;;;;;;;;;;359600;148;857341;-60
2021/06/13 05:39:03;;;;;;;8.77;3.45;;;;;;;;;;361427;148;857328;-61
2021/06/13 05:40:06;;;;;;;4.27;3.29;;;;;;;;;;356411;148;857292;-61
2021/06/13 05:41:08;;;;;;;4.92;3.27;;;;;;;;;;360099;148;857697;-60
2021/06/13 05:42:10;;;;;;;5.10;2.85;;;;;;;;;;359840;148;860149;-61
2021/06/13 05:43:11;;;;;;;6.14;3.00;;;;;;;;;;360597;147;857250;-60
2021/06/13 05:44:13;;;;;;;2.93;2.24;;;;;;;;;;358959;147;865808;-61
2021/06/13 05:45:15;;;;;;;4.67;2.71;;;;;;;;;;356635;148;865935;-60
2021/06/13 05:46:19;;;;;;;4.86;3.02;;;;;;;;;;360527;147;859092;-60
2021/06/13 05:47:21;;;;;;;6.72;3.10;;;;;;;;;;360382;148;857302;-60
2021/06/13 05:48:23;;;;;;;5.74;3.22;;;;;;;;;;361658;147;857293;-60
2021/06/13 05:49:24;;;;;;;5.19;2.99;;;;;;;;;;362342;147;857451;-61
2021/06/13 05:50:27;;;;;;;7.39;3.54;;;;;;;;;;361441;148;859138;-60
2021/06/13 05:51:29;;;;;;;5.72;2.49;;;;;;;;;;360544;147;857315;-60
2021/06/13 05:52:30;;;;;;;5.11;3.51;;;;;;;;;;360967;148;866592;-60
2021/06/13 05:53:32;;;;;;;4.72;3.15;;;;;;;;;;357788;147;857813;-59
2021/06/13 05:54:39;;;;;;;7.66;2.86;;;;;;;;;;360742;148;859172;-60
2021/06/13 05:55:37;;;;;;;3.53;2.96;;;;;;;;;;357965;147;859010;-60
2021/06/13 05:56:39;;;;;;;3.82;2.77;;;;;;;;;;358535;147;858531;-60
2021/06/13 05:57:41;;;;;;;4.36;3.11;;;;;;;;;;362704;148;858813;-60
2021/06/13 05:58:42;;;;;;;4.01;2.89;;;;;;;;;;360813;148;858177;-59
2021/06/13 05:59:44;;;;;;;3.52;3.11;;;;;;;;;;362155;147;857429;-60
2021/06/13 06:00:47;;;;;;;5.56;3.27;;;;;;;;;;357502;148;866610;-59
2021/06/13 06:01:49;;;;;;;4.56;3.14;;;;;;;;;;358206;147;857228;-59
2021/06/13 06:02:50;;;;;;;4.94;3.31;;;;;;;;;;361750;147;864823;-60
2021/06/13 06:03:52;;;;;;;6.32;3.04;;;;;;;;;;359808;148;866940;-60
2021/06/13 06:04:54;;;;;;;4.26;3.26;;;;;;;;;;360532;148;858213;-60
2021/06/13 06:05:55;;;;;;;5.81;2.87;;;;;;;;;;361077;148;859689;-60
2021/06/13 06:06:58;;;;;;;6.49;3.56;;;;;;;;;;357677;148;858766;-60
2021/06/13 06:08:00;;;;;;;4.65;3.19;;;;;;;;;;361573;146;859200;-60
2021/06/13 06:09:02;;;;;;;5.61;2.86;;;;;;;;;;361114;148;866755;-60
2021/06/13 06:10:04;;;;;;;5.09;3.50;;;;;;;;;;362452;146;859434;-60
2021/06/13 06:11:07;;;;;;;5.40;3.49;;;;;;;;;;361920;147;862549;-60
2021/06/13 06:12:09;;;;;;;5.02;3.44;;;;;;;;;;360333;148;857653;-58
2021/06/13 06:13:11;;;;;;;5.79;2.97;;;;;;;;;;361199;147;864763;-60
2021/06/13 06:14:12;;;;;;;5.19;3.55;;;;;;;;;;360704;148;859391;-60
2021/06/13 06:15:17;;;;;;;6.26;4.62;;;;;;;;;;359108;148;857736;-61
2021/06/13 06:16:21;;;;;;;4.63;3.66;;;;;;;;;;361104;147;858197;-59
2021/06/13 06:17:23;;;;;;;9.59;3.08;;;;;;;;;;361471;148;857312;-60
2021/06/13 06:18:24;;;;;;;5.58;2.99;;;;;;;;;;362100;147;858509;-61
2021/06/13 06:19:26;;;;;;;6.23;3.30;;;;;;;;;;359056;148;857332;-61
2021/06/13 06:20:29;;;;;;;6.17;3.72;;;;;;;;;;362151;148;857412;-61
2021/06/13 06:21:30;;;;;;;4.38;3.28;;;;;;;;;;361217;147;864933;-60
2021/06/13 06:22:32;;;;;;;6.66;3.65;;;;;;;;;;361887;148;857328;-60
2021/06/13 06:23:34;;;;;;;5.24;3.81;;;;;;;;;;359722;147;858965;-60
2021/06/13 06:24:36;;;;;;;5.31;3.45;;;;;;;;;;360477;147;859351;-60
2021/06/13 06:25:38;;;;;;;13.14;4.36;;;;;;;;;;361085;148;865186;-60
2021/06/13 06:26:41;;;;;;;4.13;3.22;;;;;;;;;;362431;147;864723;-60